Hilliard, OH

6:07 AM EDT on August 31, 2015 (GMT -0400)
Darby Glen | | Change Station
CLOSE
Current Station
Personal Weather Station
Location: Hilliard, OH
Elevation: 935 ft
Nearby Weather Stations

Elev 935 ft 40.02 °N, 83.13 °W | Updated 16 hours ago

Partly Cloudy
Partly Cloudy
66 °F
Feels Like 66 °F
N
1
Wind Variable Wind from WSW
Gusts mph

Today
High -- | Low -- °F
--% Chance of Precip.
Yesterday
High -- | Low -- °F
Precip. -- in
6:59 AM 8:05 PM
Waning Gibbous, 96% visible
Pressure 30.06 in
Visibility 10.0 miles
Clouds Clear
Dew Point 65 °F
Humidity 97%
Rainfall in
Snow Depth Not available.
UV 0 out of 12
Pollen 10.00 out of 12
Air Quality Not available.
Flu Activity Not available.
METAR KOSU 310853Z AUTO 21003KT 10SM CLR 20/18 A3008 RMK AO2 SLP177 T02000183 55002 $
Pressure 30.06 in
Visibility 10.0 miles
Clouds Clear
Dew Point 65 °F
Humidity 97%
Rainfall in
Snow Depth Not available.
UV 0 out of 12
Pollen 10.00 out of 12
Air Quality Not available.
Flu Activity Not available.
METAR KOSU 310853Z AUTO 21003KT 10SM CLR 20/18 A3008 RMK AO2 SLP177 T02000183 55002 $

10-Day Weather Forecast

×

Almanac

Astronomy

Aug. 31, 2015 Rise Set
Actual Time
Civil Twilight
Nautical Twilight
Astronomical Twilight
Moon
Length of Visible Light
Length of Day
Tomorrow will be .
, % of the Moon is Illuminated

Today's Extremes

State Highs State Lows

Community

WunderPhotos

Upload Photos

1,851,229 photos uploaded!

WunderBlogs® & News

Nearby

Air Quality

  Air Quality AQ Index Pollutant
Not available.

Snow Depth

Station Depth Elevation

Earthquake Activity

City Distance Mag. Time & Date
Minimum magnitude displayed is 2.5.

Coastal Water Temperatures

Place Temperature

Stations

Nearby Weather Stations

Station Location Temp. Windchill Dew Point Humidity Wind Precip. Elev Updated Type